sensor_id;sensor_type;location;lat;lon;timestamp;P1;durP1;ratioP1;P2;durP2;ratioP2
13584;SDS011;6863;48.402;9.994;2024-02-23T00:02:04;0.57;;;0.57;;
13584;SDS011;6863;48.402;9.994;2024-02-23T00:04:30;0.43;;;0.43;;
13584;SDS011;6863;48.402;9.994;2024-02-23T00:06:56;0.50;;;0.50;;
13584;SDS011;6863;48.402;9.994;2024-02-23T00:09:21;0.77;;;0.53;;
13584;SDS011;6863;48.402;9.994;2024-02-23T00:11:47;0.80;;;0.70;;
13584;SDS011;6863;48.402;9.994;2024-02-23T00:14:15;0.50;;;0.50;;
13584;SDS011;6863;48.402;9.994;2024-02-23T00:16:43;0.93;;;0.50;;
13584;SDS011;6863;48.402;9.994;2024-02-23T00:19:09;1.30;;;0.50;;
13584;SDS011;6863;48.402;9.994;2024-02-23T00:21:35;0.60;;;0.60;;
13584;SDS011;6863;48.402;9.994;2024-02-23T00:24:02;0.80;;;0.77;;
13584;SDS011;6863;48.402;9.994;2024-02-23T00:26:27;0.63;;;0.60;;
13584;SDS011;6863;48.402;9.994;2024-02-23T00:28:54;1.87;;;0.60;;
13584;SDS011;6863;48.402;9.994;2024-02-23T00:31:20;0.63;;;0.63;;
13584;SDS011;6863;48.402;9.994;2024-02-23T00:33:46;0.70;;;0.70;;
13584;SDS011;6863;48.402;9.994;2024-02-23T00:36:11;0.70;;;0.70;;
13584;SDS011;6863;48.402;9.994;2024-02-23T00:38:37;0.60;;;0.60;;
13584;SDS011;6863;48.402;9.994;2024-02-23T00:41:03;1.03;;;0.77;;
13584;SDS011;6863;48.402;9.994;2024-02-23T00:43:28;0.57;;;0.57;;
13584;SDS011;6863;48.402;9.994;2024-02-23T00:45:54;3.53;;;1.00;;
13584;SDS011;6863;48.402;9.994;2024-02-23T00:48:20;0.60;;;0.60;;
13584;SDS011;6863;48.402;9.994;2024-02-23T00:50:46;0.77;;;0.77;;
13584;SDS011;6863;48.402;9.994;2024-02-23T00:53:11;1.20;;;0.97;;
13584;SDS011;6863;48.402;9.994;2024-02-23T00:55:37;0.50;;;0.50;;
13584;SDS011;6863;48.402;9.994;2024-02-23T00:58:03;0.30;;;0.30;;
13584;SDS011;6863;48.402;9.994;2024-02-23T01:00:28;0.30;;;0.30;;
13584;SDS011;6863;48.402;9.994;2024-02-23T01:02:54;0.37;;;0.37;;
13584;SDS011;6863;48.402;9.994;2024-02-23T01:05:20;0.47;;;0.37;;
13584;SDS011;6863;48.402;9.994;2024-02-23T01:07:45;0.37;;;0.37;;
13584;SDS011;6863;48.402;9.994;2024-02-23T01:10:11;1.03;;;0.40;;
13584;SDS011;6863;48.402;9.994;2024-02-23T01:12:37;0.47;;;0.47;;
13584;SDS011;6863;48.402;9.994;2024-02-23T01:15:02;0.20;;;0.20;;
13584;SDS011;6863;48.402;9.994;2024-02-23T01:17:28;0.40;;;0.40;;
13584;SDS011;6863;48.402;9.994;2024-02-23T01:19:54;1.20;;;0.40;;
13584;SDS011;6863;48.402;9.994;2024-02-23T01:22:20;1.60;;;0.37;;
13584;SDS011;6863;48.402;9.994;2024-02-23T01:24:45;0.30;;;0.30;;
13584;SDS011;6863;48.402;9.994;2024-02-23T01:27:11;0.30;;;0.30;;
13584;SDS011;6863;48.402;9.994;2024-02-23T01:29:36;0.30;;;0.30;;
13584;SDS011;6863;48.402;9.994;2024-02-23T01:32:02;0.30;;;0.30;;
13584;SDS011;6863;48.402;9.994;2024-02-23T01:34:28;0.50;;;0.50;;
13584;SDS011;6863;48.402;9.994;2024-02-23T01:36:53;0.30;;;0.30;;
13584;SDS011;6863;48.402;9.994;2024-02-23T01:39:19;0.30;;;0.30;;
13584;SDS011;6863;48.402;9.994;2024-02-23T01:41:45;0.30;;;0.30;;
13584;SDS011;6863;48.402;9.994;2024-02-23T01:44:10;0.40;;;0.40;;
13584;SDS011;6863;48.402;9.994;2024-02-23T01:46:36;0.50;;;0.50;;
13584;SDS011;6863;48.402;9.994;2024-02-23T01:49:02;0.50;;;0.50;;
13584;SDS011;6863;48.402;9.994;2024-02-23T01:51:30;0.33;;;0.33;;
13584;SDS011;6863;48.402;9.994;2024-02-23T01:53:56;0.50;;;0.50;;
13584;SDS011;6863;48.402;9.994;2024-02-23T01:56:22;0.40;;;0.40;;
13584;SDS011;6863;48.402;9.994;2024-02-23T01:58:47;0.40;;;0.40;;
13584;SDS011;6863;48.402;9.994;2024-02-23T02:01:13;0.50;;;0.50;;
13584;SDS011;6863;48.402;9.994;2024-02-23T02:03:39;0.50;;;0.50;;
13584;SDS011;6863;48.402;9.994;2024-02-23T02:06:05;1.57;;;0.70;;
13584;SDS011;6863;48.402;9.994;2024-02-23T02:08:32;0.60;;;0.60;;
13584;SDS011;6863;48.402;9.994;2024-02-23T02:10:59;0.70;;;0.47;;
13584;SDS011;6863;48.402;9.994;2024-02-23T02:13:25;0.50;;;0.50;;
13584;SDS011;6863;48.402;9.994;2024-02-23T02:15:50;0.40;;;0.40;;
13584;SDS011;6863;48.402;9.994;2024-02-23T02:18:16;0.40;;;0.40;;
13584;SDS011;6863;48.402;9.994;2024-02-23T02:20:47;0.90;;;0.50;;
13584;SDS011;6863;48.402;9.994;2024-02-23T02:23:17;0.57;;;0.40;;
13584;SDS011;6863;48.402;9.994;2024-02-23T02:25:43;0.60;;;0.60;;
13584;SDS011;6863;48.402;9.994;2024-02-23T02:28:09;0.70;;;0.70;;
13584;SDS011;6863;48.402;9.994;2024-02-23T02:30:34;1.50;;;0.60;;
13584;SDS011;6863;48.402;9.994;2024-02-23T02:33:00;0.63;;;0.63;;
13584;SDS011;6863;48.402;9.994;2024-02-23T02:35:25;1.37;;;0.93;;
13584;SDS011;6863;48.402;9.994;2024-02-23T02:37:51;0.97;;;0.90;;
13584;SDS011;6863;48.402;9.994;2024-02-23T02:40:17;1.57;;;1.00;;
13584;SDS011;6863;48.402;9.994;2024-02-23T02:42:42;0.93;;;0.90;;
13584;SDS011;6863;48.402;9.994;2024-02-23T02:45:08;0.93;;;0.77;;
13584;SDS011;6863;48.402;9.994;2024-02-23T02:47:33;1.10;;;0.47;;
13584;SDS011;6863;48.402;9.994;2024-02-23T02:50:01;0.50;;;0.50;;
13584;SDS011;6863;48.402;9.994;2024-02-23T02:52:26;0.40;;;0.40;;
13584;SDS011;6863;48.402;9.994;2024-02-23T02:54:53;0.47;;;0.47;;
13584;SDS011;6863;48.402;9.994;2024-02-23T02:57:19;0.30;;;0.30;;
13584;SDS011;6863;48.402;9.994;2024-02-23T02:59:45;0.37;;;0.37;;
13584;SDS011;6863;48.402;9.994;2024-02-23T03:02:11;2.93;;;0.47;;
13584;SDS011;6863;48.402;9.994;2024-02-23T03:04:36;0.33;;;0.33;;
13584;SDS011;6863;48.402;9.994;2024-02-23T03:07:02;0.30;;;0.30;;
13584;SDS011;6863;48.402;9.994;2024-02-23T03:09:28;0.60;;;0.53;;
13584;SDS011;6863;48.402;9.994;2024-02-23T03:11:53;0.47;;;0.43;;
13584;SDS011;6863;48.402;9.994;2024-02-23T03:14:19;0.30;;;0.30;;
13584;SDS011;6863;48.402;9.994;2024-02-23T03:16:45;0.50;;;0.50;;
13584;SDS011;6863;48.402;9.994;2024-02-23T03:19:12;0.50;;;0.50;;
13584;SDS011;6863;48.402;9.994;2024-02-23T03:21:38;0.77;;;0.63;;
13584;SDS011;6863;48.402;9.994;2024-02-23T03:24:04;0.67;;;0.50;;
13584;SDS011;6863;48.402;9.994;2024-02-23T03:26:29;1.10;;;0.60;;
13584;SDS011;6863;48.402;9.994;2024-02-23T03:28:55;2.13;;;0.60;;
13584;SDS011;6863;48.402;9.994;2024-02-23T03:31:20;0.83;;;0.60;;
13584;SDS011;6863;48.402;9.994;2024-02-23T03:33:46;0.50;;;0.50;;
13584;SDS011;6863;48.402;9.994;2024-02-23T03:36:11;0.50;;;0.50;;
13584;SDS011;6863;48.402;9.994;2024-02-23T03:38:37;0.67;;;0.67;;
13584;SDS011;6863;48.402;9.994;2024-02-23T03:41:03;0.70;;;0.70;;
13584;SDS011;6863;48.402;9.994;2024-02-23T03:43:28;0.60;;;0.60;;
13584;SDS011;6863;48.402;9.994;2024-02-23T03:45:54;0.50;;;0.50;;
13584;SDS011;6863;48.402;9.994;2024-02-23T03:48:19;0.50;;;0.50;;
13584;SDS011;6863;48.402;9.994;2024-02-23T03:50:45;0.70;;;0.70;;
13584;SDS011;6863;48.402;9.994;2024-02-23T03:53:11;0.63;;;0.63;;
13584;SDS011;6863;48.402;9.994;2024-02-23T03:55:36;0.33;;;0.33;;
13584;SDS011;6863;48.402;9.994;2024-02-23T03:58:02;0.40;;;0.40;;
13584;SDS011;6863;48.402;9.994;2024-02-23T04:00:28;1.07;;;0.50;;
13584;SDS011;6863;48.402;9.994;2024-02-23T04:02:53;0.57;;;0.57;;
13584;SDS011;6863;48.402;9.994;2024-02-23T04:05:19;0.70;;;0.70;;
13584;SDS011;6863;48.402;9.994;2024-02-23T04:07:44;0.73;;;0.73;;
13584;SDS011;6863;48.402;9.994;2024-02-23T04:10:10;0.70;;;0.70;;
13584;SDS011;6863;48.402;9.994;2024-02-23T04:12:41;4.27;;;1.60;;
13584;SDS011;6863;48.402;9.994;2024-02-23T04:15:07;2.47;;;1.33;;
13584;SDS011;6863;48.402;9.994;2024-02-23T04:17:33;0.90;;;0.90;;
13584;SDS011;6863;48.402;9.994;2024-02-23T04:20:00;0.83;;;0.83;;
13584;SDS011;6863;48.402;9.994;2024-02-23T04:22:30;1.07;;;0.70;;
13584;SDS011;6863;48.402;9.994;2024-02-23T04:24:55;0.57;;;0.50;;
13584;SDS011;6863;48.402;9.994;2024-02-23T04:27:21;0.70;;;0.70;;
13584;SDS011;6863;48.402;9.994;2024-02-23T04:29:46;0.60;;;0.60;;
13584;SDS011;6863;48.402;9.994;2024-02-23T04:32:12;0.40;;;0.40;;
13584;SDS011;6863;48.402;9.994;2024-02-23T04:34:38;0.40;;;0.40;;
13584;SDS011;6863;48.402;9.994;2024-02-23T04:37:05;1.13;;;0.90;;
13584;SDS011;6863;48.402;9.994;2024-02-23T04:39:31;0.57;;;0.57;;
13584;SDS011;6863;48.402;9.994;2024-02-23T04:41:56;0.70;;;0.70;;
13584;SDS011;6863;48.402;9.994;2024-02-23T04:44:22;0.53;;;0.53;;
13584;SDS011;6863;48.402;9.994;2024-02-23T04:46:48;0.70;;;0.70;;
13584;SDS011;6863;48.402;9.994;2024-02-23T04:49:13;0.60;;;0.60;;
13584;SDS011;6863;48.402;9.994;2024-02-23T04:51:39;0.70;;;0.70;;
13584;SDS011;6863;48.402;9.994;2024-02-23T04:54:04;0.97;;;0.70;;
13584;SDS011;6863;48.402;9.994;2024-02-23T04:56:31;0.93;;;0.60;;
13584;SDS011;6863;48.402;9.994;2024-02-23T04:58:56;0.77;;;0.67;;
13584;SDS011;6863;48.402;9.994;2024-02-23T05:01:22;0.60;;;0.60;;
13584;SDS011;6863;48.402;9.994;2024-02-23T05:03:48;0.43;;;0.43;;
13584;SDS011;6863;48.402;9.994;2024-02-23T05:06:13;0.60;;;0.50;;
13584;SDS011;6863;48.402;9.994;2024-02-23T05:08:39;0.73;;;0.73;;
13584;SDS011;6863;48.402;9.994;2024-02-23T05:11:05;0.77;;;0.77;;
13584;SDS011;6863;48.402;9.994;2024-02-23T05:13:31;0.73;;;0.73;;
13584;SDS011;6863;48.402;9.994;2024-02-23T05:15:57;0.87;;;0.87;;
13584;SDS011;6863;48.402;9.994;2024-02-23T05:18:22;0.97;;;0.97;;
13584;SDS011;6863;48.402;9.994;2024-02-23T05:20:48;1.53;;;0.90;;
13584;SDS011;6863;48.402;9.994;2024-02-23T05:23:14;1.10;;;1.00;;
13584;SDS011;6863;48.402;9.994;2024-02-23T05:25:41;0.80;;;0.80;;
13584;SDS011;6863;48.402;9.994;2024-02-23T05:28:07;0.73;;;0.73;;
13584;SDS011;6863;48.402;9.994;2024-02-23T05:30:32;1.50;;;1.40;;
13584;SDS011;6863;48.402;9.994;2024-02-23T05:32:58;0.90;;;0.90;;
13584;SDS011;6863;48.402;9.994;2024-02-23T05:35:27;0.77;;;0.77;;
13584;SDS011;6863;48.402;9.994;2024-02-23T05:37:52;0.80;;;0.80;;
13584;SDS011;6863;48.402;9.994;2024-02-23T05:40:18;0.70;;;0.70;;
13584;SDS011;6863;48.402;9.994;2024-02-23T05:42:43;0.80;;;0.80;;
13584;SDS011;6863;48.402;9.994;2024-02-23T05:45:09;1.00;;;0.90;;
13584;SDS011;6863;48.402;9.994;2024-02-23T05:47:35;1.70;;;1.03;;
13584;SDS011;6863;48.402;9.994;2024-02-23T05:50:02;1.00;;;1.00;;
13584;SDS011;6863;48.402;9.994;2024-02-23T05:52:29;0.93;;;0.93;;
13584;SDS011;6863;48.402;9.994;2024-02-23T05:54:56;1.97;;;1.23;;
13584;SDS011;6863;48.402;9.994;2024-02-23T05:57:22;1.60;;;0.80;;
13584;SDS011;6863;48.402;9.994;2024-02-23T05:59:47;1.20;;;1.00;;
13584;SDS011;6863;48.402;9.994;2024-02-23T06:02:13;1.57;;;1.10;;
13584;SDS011;6863;48.402;9.994;2024-02-23T06:04:40;1.20;;;1.10;;
13584;SDS011;6863;48.402;9.994;2024-02-23T06:07:05;1.97;;;1.50;;
13584;SDS011;6863;48.402;9.994;2024-02-23T06:09:31;1.90;;;1.07;;
13584;SDS011;6863;48.402;9.994;2024-02-23T06:11:56;0.97;;;0.90;;
13584;SDS011;6863;48.402;9.994;2024-02-23T06:14:22;0.90;;;0.90;;
13584;SDS011;6863;48.402;9.994;2024-02-23T06:16:48;1.80;;;1.00;;
13584;SDS011;6863;48.402;9.994;2024-02-23T06:19:14;1.17;;;0.90;;
13584;SDS011;6863;48.402;9.994;2024-02-23T06:21:40;1.40;;;0.90;;
13584;SDS011;6863;48.402;9.994;2024-02-23T06:24:06;1.43;;;1.43;;
13584;SDS011;6863;48.402;9.994;2024-02-23T06:26:33;1.60;;;1.10;;
13584;SDS011;6863;48.402;9.994;2024-02-23T06:28:59;1.27;;;1.17;;
13584;SDS011;6863;48.402;9.994;2024-02-23T06:31:25;1.50;;;1.23;;
13584;SDS011;6863;48.402;9.994;2024-02-23T06:36:18;1.40;;;1.20;;
13584;SDS011;6863;48.402;9.994;2024-02-23T06:38:44;1.87;;;1.13;;
13584;SDS011;6863;48.402;9.994;2024-02-23T06:41:10;1.10;;;1.10;;
13584;SDS011;6863;48.402;9.994;2024-02-23T06:43:36;1.20;;;1.20;;
13584;SDS011;6863;48.402;9.994;2024-02-23T06:46:06;1.50;;;1.40;;
13584;SDS011;6863;48.402;9.994;2024-02-23T06:48:33;1.80;;;1.47;;
13584;SDS011;6863;48.402;9.994;2024-02-23T06:50:59;1.27;;;1.23;;
13584;SDS011;6863;48.402;9.994;2024-02-23T06:53:24;1.53;;;1.43;;
13584;SDS011;6863;48.402;9.994;2024-02-23T06:55:50;1.50;;;1.40;;
13584;SDS011;6863;48.402;9.994;2024-02-23T06:58:15;1.57;;;1.30;;
13584;SDS011;6863;48.402;9.994;2024-02-23T07:00:41;2.20;;;1.43;;
13584;SDS011;6863;48.402;9.994;2024-02-23T07:03:07;1.27;;;1.17;;
13584;SDS011;6863;48.402;9.994;2024-02-23T07:05:33;1.80;;;1.27;;
13584;SDS011;6863;48.402;9.994;2024-02-23T07:08:00;1.87;;;1.30;;
13584;SDS011;6863;48.402;9.994;2024-02-23T07:10:26;1.73;;;1.10;;
13584;SDS011;6863;48.402;9.994;2024-02-23T07:12:51;1.30;;;1.30;;
13584;SDS011;6863;48.402;9.994;2024-02-23T07:15:21;3.77;;;1.27;;
13584;SDS011;6863;48.402;9.994;2024-02-23T07:17:47;1.07;;;1.07;;
13584;SDS011;6863;48.402;9.994;2024-02-23T07:20:12;1.00;;;1.00;;
13584;SDS011;6863;48.402;9.994;2024-02-23T07:22:38;1.50;;;1.40;;
13584;SDS011;6863;48.402;9.994;2024-02-23T07:25:04;3.20;;;1.40;;
13584;SDS011;6863;48.402;9.994;2024-02-23T07:27:30;1.60;;;1.20;;
13584;SDS011;6863;48.402;9.994;2024-02-23T07:29:56;1.37;;;1.23;;
13584;SDS011;6863;48.402;9.994;2024-02-23T07:32:22;1.67;;;1.20;;
13584;SDS011;6863;48.402;9.994;2024-02-23T07:34:48;1.57;;;1.40;;
13584;SDS011;6863;48.402;9.994;2024-02-23T07:37:14;1.37;;;1.27;;
13584;SDS011;6863;48.402;9.994;2024-02-23T07:39:43;1.37;;;1.27;;
13584;SDS011;6863;48.402;9.994;2024-02-23T07:42:08;1.50;;;1.40;;
13584;SDS011;6863;48.402;9.994;2024-02-23T07:44:35;4.23;;;1.40;;
13584;SDS011;6863;48.402;9.994;2024-02-23T07:47:02;1.20;;;1.20;;
13584;SDS011;6863;48.402;9.994;2024-02-23T07:49:28;1.77;;;1.17;;
13584;SDS011;6863;48.402;9.994;2024-02-23T07:51:54;4.97;;;1.27;;
13584;SDS011;6863;48.402;9.994;2024-02-23T07:54:19;1.67;;;1.30;;
13584;SDS011;6863;48.402;9.994;2024-02-23T07:56:45;1.40;;;1.30;;
13584;SDS011;6863;48.402;9.994;2024-02-23T07:59:10;2.37;;;1.33;;
13584;SDS011;6863;48.402;9.994;2024-02-23T08:01:36;1.40;;;1.30;;
13584;SDS011;6863;48.402;9.994;2024-02-23T08:04:01;1.50;;;1.40;;
13584;SDS011;6863;48.402;9.994;2024-02-23T08:06:28;2.17;;;1.40;;
13584;SDS011;6863;48.402;9.994;2024-02-23T08:08:54;1.97;;;1.30;;
13584;SDS011;6863;48.402;9.994;2024-02-23T08:11:20;2.90;;;1.50;;
13584;SDS011;6863;48.402;9.994;2024-02-23T08:13:45;2.23;;;1.40;;
13584;SDS011;6863;48.402;9.994;2024-02-23T08:16:11;3.03;;;1.60;;
13584;SDS011;6863;48.402;9.994;2024-02-23T08:18:37;1.87;;;1.40;;
13584;SDS011;6863;48.402;9.994;2024-02-23T08:21:02;2.37;;;1.50;;
13584;SDS011;6863;48.402;9.994;2024-02-23T08:23:30;1.80;;;1.60;;
13584;SDS011;6863;48.402;9.994;2024-02-23T08:25:55;2.63;;;1.73;;
13584;SDS011;6863;48.402;9.994;2024-02-23T08:28:25;1.50;;;1.40;;
13584;SDS011;6863;48.402;9.994;2024-02-23T08:30:51;2.50;;;1.70;;
13584;SDS011;6863;48.402;9.994;2024-02-23T08:33:18;3.63;;;1.60;;
13584;SDS011;6863;48.402;9.994;2024-02-23T08:35:43;1.93;;;1.40;;
13584;SDS011;6863;48.402;9.994;2024-02-23T08:38:10;2.87;;;1.40;;
13584;SDS011;6863;48.402;9.994;2024-02-23T08:40:36;2.93;;;1.60;;
13584;SDS011;6863;48.402;9.994;2024-02-23T08:43:02;1.33;;;1.23;;
13584;SDS011;6863;48.402;9.994;2024-02-23T08:45:28;2.70;;;1.70;;
13584;SDS011;6863;48.402;9.994;2024-02-23T08:47:53;1.53;;;1.43;;
13584;SDS011;6863;48.402;9.994;2024-02-23T08:50:19;3.00;;;1.50;;
13584;SDS011;6863;48.402;9.994;2024-02-23T08:52:44;2.37;;;1.70;;
13584;SDS011;6863;48.402;9.994;2024-02-23T08:55:10;2.13;;;1.77;;
13584;SDS011;6863;48.402;9.994;2024-02-23T08:57:36;4.67;;;1.70;;
13584;SDS011;6863;48.402;9.994;2024-02-23T09:00:03;1.47;;;1.40;;
13584;SDS011;6863;48.402;9.994;2024-02-23T09:02:29;1.67;;;1.47;;
13584;SDS011;6863;48.402;9.994;2024-02-23T09:04:56;1.60;;;1.17;;
13584;SDS011;6863;48.402;9.994;2024-02-23T09:07:21;1.60;;;1.50;;
13584;SDS011;6863;48.402;9.994;2024-02-23T09:09:47;1.33;;;1.33;;
13584;SDS011;6863;48.402;9.994;2024-02-23T09:12:15;1.37;;;1.27;;
13584;SDS011;6863;48.402;9.994;2024-02-23T09:14:44;3.10;;;1.50;;
13584;SDS011;6863;48.402;9.994;2024-02-23T09:17:10;2.70;;;1.53;;
13584;SDS011;6863;48.402;9.994;2024-02-23T09:19:37;1.47;;;1.37;;
13584;SDS011;6863;48.402;9.994;2024-02-23T09:22:03;1.20;;;1.20;;
13584;SDS011;6863;48.402;9.994;2024-02-23T09:24:29;1.33;;;1.17;;
13584;SDS011;6863;48.402;9.994;2024-02-23T09:26:54;2.10;;;1.40;;
13584;SDS011;6863;48.402;9.994;2024-02-23T09:29:20;4.27;;;1.87;;
13584;SDS011;6863;48.402;9.994;2024-02-23T09:31:46;1.67;;;1.57;;
13584;SDS011;6863;48.402;9.994;2024-02-23T09:34:12;2.70;;;1.47;;
13584;SDS011;6863;48.402;9.994;2024-02-23T09:36:37;2.70;;;1.60;;
13584;SDS011;6863;48.402;9.994;2024-02-23T09:39:03;2.93;;;1.60;;
13584;SDS011;6863;48.402;9.994;2024-02-23T09:41:29;2.80;;;1.40;;
13584;SDS011;6863;48.402;9.994;2024-02-23T09:43:59;1.70;;;1.53;;
13584;SDS011;6863;48.402;9.994;2024-02-23T09:46:26;2.90;;;1.40;;
13584;SDS011;6863;48.402;9.994;2024-02-23T09:48:52;3.53;;;2.63;;
13584;SDS011;6863;48.402;9.994;2024-02-23T09:51:19;2.20;;;1.77;;
13584;SDS011;6863;48.402;9.994;2024-02-23T09:53:48;3.53;;;1.63;;
13584;SDS011;6863;48.402;9.994;2024-02-23T09:56:15;2.60;;;1.80;;
13584;SDS011;6863;48.402;9.994;2024-02-23T09:58:42;2.37;;;2.07;;
13584;SDS011;6863;48.402;9.994;2024-02-23T10:01:09;3.43;;;1.70;;
13584;SDS011;6863;48.402;9.994;2024-02-23T10:03:37;2.23;;;1.40;;
13584;SDS011;6863;48.402;9.994;2024-02-23T10:06:03;3.83;;;2.87;;
13584;SDS011;6863;48.402;9.994;2024-02-23T10:08:30;3.53;;;2.33;;
13584;SDS011;6863;48.402;9.994;2024-02-23T10:10:56;2.90;;;1.80;;
13584;SDS011;6863;48.402;9.994;2024-02-23T10:13:22;1.60;;;1.40;;
13584;SDS011;6863;48.402;9.994;2024-02-23T10:15:51;2.53;;;1.60;;
13584;SDS011;6863;48.402;9.994;2024-02-23T10:18:17;4.10;;;1.60;;
13584;SDS011;6863;48.402;9.994;2024-02-23T10:20:43;1.43;;;1.33;;
13584;SDS011;6863;48.402;9.994;2024-02-23T10:23:09;2.70;;;1.57;;
13584;SDS011;6863;48.402;9.994;2024-02-23T10:25:35;4.40;;;1.90;;
13584;SDS011;6863;48.402;9.994;2024-02-23T10:28:02;3.43;;;1.50;;
13584;SDS011;6863;48.402;9.994;2024-02-23T10:30:28;3.87;;;2.13;;
13584;SDS011;6863;48.402;9.994;2024-02-23T10:32:55;2.63;;;1.70;;
13584;SDS011;6863;48.402;9.994;2024-02-23T10:35:21;4.73;;;1.60;;
13584;SDS011;6863;48.402;9.994;2024-02-23T10:37:49;2.87;;;1.60;;
13584;SDS011;6863;48.402;9.994;2024-02-23T10:40:17;3.20;;;1.70;;
13584;SDS011;6863;48.402;9.994;2024-02-23T10:42:44;4.67;;;2.23;;
13584;SDS011;6863;48.402;9.994;2024-02-23T10:45:16;2.63;;;2.17;;
13584;SDS011;6863;48.402;9.994;2024-02-23T10:47:48;4.17;;;2.23;;
13584;SDS011;6863;48.402;9.994;2024-02-23T10:50:15;4.07;;;2.40;;
13584;SDS011;6863;48.402;9.994;2024-02-23T10:52:42;2.80;;;1.83;;
13584;SDS011;6863;48.402;9.994;2024-02-23T10:55:08;7.83;;;2.20;;
13584;SDS011;6863;48.402;9.994;2024-02-23T10:57:34;4.67;;;1.57;;
13584;SDS011;6863;48.402;9.994;2024-02-23T11:00:00;4.43;;;1.67;;
13584;SDS011;6863;48.402;9.994;2024-02-23T11:02:30;3.77;;;1.83;;
13584;SDS011;6863;48.402;9.994;2024-02-23T11:04:57;4.17;;;2.00;;
13584;SDS011;6863;48.402;9.994;2024-02-23T11:07:24;3.23;;;2.00;;
13584;SDS011;6863;48.402;9.994;2024-02-23T11:09:54;2.30;;;1.60;;
13584;SDS011;6863;48.402;9.994;2024-02-23T11:12:26;3.60;;;2.27;;
13584;SDS011;6863;48.402;9.994;2024-02-23T11:14:58;3.27;;;1.60;;
13584;SDS011;6863;48.402;9.994;2024-02-23T11:17:31;3.43;;;2.50;;
13584;SDS011;6863;48.402;9.994;2024-02-23T11:19:58;4.20;;;2.03;;
13584;SDS011;6863;48.402;9.994;2024-02-23T11:22:32;6.30;;;2.10;;
13584;SDS011;6863;48.402;9.994;2024-02-23T11:25:03;3.17;;;1.90;;
13584;SDS011;6863;48.402;9.994;2024-02-23T11:27:36;5.80;;;2.13;;
13584;SDS011;6863;48.402;9.994;2024-02-23T11:30:04;2.17;;;1.63;;
13584;SDS011;6863;48.402;9.994;2024-02-23T11:32:38;3.97;;;1.77;;
13584;SDS011;6863;48.402;9.994;2024-02-23T11:35:05;5.37;;;2.87;;
13584;SDS011;6863;48.402;9.994;2024-02-23T11:37:32;5.27;;;1.90;;
13584;SDS011;6863;48.402;9.994;2024-02-23T11:39:58;6.73;;;2.23;;
13584;SDS011;6863;48.402;9.994;2024-02-23T11:42:26;5.77;;;2.30;;
13584;SDS011;6863;48.402;9.994;2024-02-23T11:44:52;5.20;;;1.83;;
13584;SDS011;6863;48.402;9.994;2024-02-23T11:47:19;4.70;;;1.80;;
13584;SDS011;6863;48.402;9.994;2024-02-23T11:49:44;4.00;;;1.93;;
13584;SDS011;6863;48.402;9.994;2024-02-23T11:52:10;4.70;;;2.00;;
13584;SDS011;6863;48.402;9.994;2024-02-23T11:54:36;5.97;;;2.60;;
13584;SDS011;6863;48.402;9.994;2024-02-23T11:57:02;4.30;;;2.13;;
13584;SDS011;6863;48.402;9.994;2024-02-23T11:59:28;3.57;;;1.80;;
13584;SDS011;6863;48.402;9.994;2024-02-23T12:01:54;4.23;;;1.93;;
13584;SDS011;6863;48.402;9.994;2024-02-23T12:04:19;4.13;;;2.27;;
13584;SDS011;6863;48.402;9.994;2024-02-23T12:06:45;4.30;;;1.93;;
13584;SDS011;6863;48.402;9.994;2024-02-23T12:09:11;2.97;;;2.33;;
13584;SDS011;6863;48.402;9.994;2024-02-23T12:11:38;9.43;;;3.00;;
13584;SDS011;6863;48.402;9.994;2024-02-23T12:14:04;4.10;;;2.03;;
13584;SDS011;6863;48.402;9.994;2024-02-23T12:16:34;4.83;;;2.73;;
13584;SDS011;6863;48.402;9.994;2024-02-23T12:19:03;2.97;;;1.73;;
13584;SDS011;6863;48.402;9.994;2024-02-23T12:21:29;3.27;;;1.60;;
13584;SDS011;6863;48.402;9.994;2024-02-23T12:23:54;2.27;;;1.60;;
13584;SDS011;6863;48.402;9.994;2024-02-23T12:26:20;3.47;;;2.03;;
13584;SDS011;6863;48.402;9.994;2024-02-23T12:28:46;5.33;;;1.90;;
13584;SDS011;6863;48.402;9.994;2024-02-23T12:31:12;2.60;;;1.43;;
13584;SDS011;6863;48.402;9.994;2024-02-23T12:33:38;3.07;;;1.97;;
13584;SDS011;6863;48.402;9.994;2024-02-23T12:36:05;4.53;;;1.80;;
13584;SDS011;6863;48.402;9.994;2024-02-23T12:38:32;3.30;;;1.50;;
13584;SDS011;6863;48.402;9.994;2024-02-23T12:40:59;2.70;;;1.67;;
13584;SDS011;6863;48.402;9.994;2024-02-23T12:43:25;4.83;;;1.93;;
13584;SDS011;6863;48.402;9.994;2024-02-23T12:45:54;1.87;;;1.70;;
13584;SDS011;6863;48.402;9.994;2024-02-23T12:48:21;4.17;;;2.07;;
13584;SDS011;6863;48.402;9.994;2024-02-23T12:50:47;3.30;;;1.70;;
13584;SDS011;6863;48.402;9.994;2024-02-23T12:53:29;6.97;;;2.00;;
13584;SDS011;6863;48.402;9.994;2024-02-23T12:56:06;1.70;;;1.60;;
13584;SDS011;6863;48.402;9.994;2024-02-23T12:58:36;3.53;;;1.70;;
13584;SDS011;6863;48.402;9.994;2024-02-23T13:01:03;4.03;;;2.27;;
13584;SDS011;6863;48.402;9.994;2024-02-23T13:03:29;3.07;;;1.90;;
13584;SDS011;6863;48.402;9.994;2024-02-23T13:05:55;2.60;;;1.60;;
13584;SDS011;6863;48.402;9.994;2024-02-23T13:08:21;2.70;;;1.63;;
13584;SDS011;6863;48.402;9.994;2024-02-23T13:10:47;3.30;;;1.77;;
13584;SDS011;6863;48.402;9.994;2024-02-23T13:13:18;2.07;;;1.47;;
13584;SDS011;6863;48.402;9.994;2024-02-23T13:15:44;1.90;;;1.50;;
13584;SDS011;6863;48.402;9.994;2024-02-23T13:18:10;3.63;;;1.77;;
13584;SDS011;6863;48.402;9.994;2024-02-23T13:20:37;3.67;;;1.90;;
13584;SDS011;6863;48.402;9.994;2024-02-23T13:23:03;1.97;;;1.50;;
13584;SDS011;6863;48.402;9.994;2024-02-23T13:25:29;3.87;;;1.80;;
13584;SDS011;6863;48.402;9.994;2024-02-23T13:27:54;3.97;;;2.17;;
13584;SDS011;6863;48.402;9.994;2024-02-23T13:30:20;3.67;;;1.80;;
13584;SDS011;6863;48.402;9.994;2024-02-23T13:32:46;3.33;;;1.87;;
13584;SDS011;6863;48.402;9.994;2024-02-23T13:35:11;2.77;;;1.60;;
13584;SDS011;6863;48.402;9.994;2024-02-23T13:37:39;2.43;;;1.47;;
13584;SDS011;6863;48.402;9.994;2024-02-23T13:40:05;2.80;;;1.53;;
13584;SDS011;6863;48.402;9.994;2024-02-23T13:42:33;3.17;;;2.43;;
13584;SDS011;6863;48.402;9.994;2024-02-23T13:44:59;2.10;;;1.63;;
13584;SDS011;6863;48.402;9.994;2024-02-23T13:47:25;1.50;;;1.40;;
13584;SDS011;6863;48.402;9.994;2024-02-23T13:49:50;3.30;;;1.50;;
13584;SDS011;6863;48.402;9.994;2024-02-23T13:52:16;2.40;;;1.40;;
13584;SDS011;6863;48.402;9.994;2024-02-23T13:54:42;1.80;;;1.67;;
13584;SDS011;6863;48.402;9.994;2024-02-23T13:57:08;2.00;;;1.50;;
13584;SDS011;6863;48.402;9.994;2024-02-23T13:59:33;2.33;;;1.57;;
13584;SDS011;6863;48.402;9.994;2024-02-23T14:01:59;2.37;;;1.60;;
13584;SDS011;6863;48.402;9.994;2024-02-23T14:04:25;1.60;;;1.50;;
13584;SDS011;6863;48.402;9.994;2024-02-23T14:06:51;3.47;;;1.57;;
13584;SDS011;6863;48.402;9.994;2024-02-23T14:09:16;4.90;;;2.00;;
13584;SDS011;6863;48.402;9.994;2024-02-23T14:11:42;3.50;;;2.17;;
13584;SDS011;6863;48.402;9.994;2024-02-23T14:14:08;5.70;;;1.90;;
13584;SDS011;6863;48.402;9.994;2024-02-23T14:16:33;4.43;;;2.10;;
13584;SDS011;6863;48.402;9.994;2024-02-23T14:19:00;3.70;;;1.80;;
13584;SDS011;6863;48.402;9.994;2024-02-23T14:21:25;2.47;;;2.10;;
13584;SDS011;6863;48.402;9.994;2024-02-23T14:23:51;4.20;;;1.90;;
13584;SDS011;6863;48.402;9.994;2024-02-23T14:26:17;3.17;;;2.03;;
13584;SDS011;6863;48.402;9.994;2024-02-23T14:28:42;2.50;;;1.60;;
13584;SDS011;6863;48.402;9.994;2024-02-23T14:31:08;5.73;;;2.07;;
13584;SDS011;6863;48.402;9.994;2024-02-23T14:33:34;2.70;;;1.77;;
13584;SDS011;6863;48.402;9.994;2024-02-23T14:35:59;4.33;;;2.53;;
13584;SDS011;6863;48.402;9.994;2024-02-23T14:38:25;2.63;;;1.60;;
13584;SDS011;6863;48.402;9.994;2024-02-23T14:40:51;2.50;;;1.50;;
13584;SDS011;6863;48.402;9.994;2024-02-23T14:43:16;2.20;;;1.57;;
13584;SDS011;6863;48.402;9.994;2024-02-23T14:45:42;1.90;;;1.70;;
13584;SDS011;6863;48.402;9.994;2024-02-23T14:48:08;2.40;;;2.20;;
13584;SDS011;6863;48.402;9.994;2024-02-23T14:50:34;1.83;;;1.70;;
13584;SDS011;6863;48.402;9.994;2024-02-23T14:52:59;4.10;;;2.03;;
13584;SDS011;6863;48.402;9.994;2024-02-23T14:55:25;3.30;;;1.80;;
13584;SDS011;6863;48.402;9.994;2024-02-23T14:57:51;3.13;;;1.70;;